Time;durP1;ratioP1;P1;durP2;ratioP2;P2;SDS_P1;SDS_P2;PMS_P1;PMS_P2;Temp;Humidity;BMP_temperature;BMP_pressure;BME280_temperature;BME280_humidity;BME280_pressure;Samples;Min_cycle;Max_cycle;Signal;HPM_P1;HPM_P2
2024/01/10 00:00:26;;;;;;;6.00;3.03;;;;;;;17.80;30.47;102959.53;4970824;28;20442;-71
2024/01/10 00:02:51;;;;;;;4.15;2.20;;;;;;;17.86;30.04;102964.50;4968557;28;20484;-69
2024/01/10 00:05:16;;;;;;;6.00;2.67;;;;;;;17.83;30.20;102966.44;4970584;28;20045;-70
2024/01/10 00:07:41;;;;;;;6.13;3.00;;;;;;;17.83;30.16;102961.16;4970426;28;20035;-70
2024/01/10 00:10:07;;;;;;;4.37;2.30;;;;;;;17.73;30.19;102961.56;4970609;28;20130;-71
2024/01/10 00:12:36;;;;;;;5.38;2.65;;;;;;;17.70;30.14;102948.53;4970689;28;20303;-71
2024/01/10 00:15:05;;;;;;;5.47;2.30;;;;;;;17.77;29.81;102957.03;4970471;28;20558;-72
2024/01/10 00:17:31;;;;;;;5.57;2.80;;;;;;;17.67;29.71;102935.47;4970471;28;20451;-72
2024/01/10 00:19:56;;;;;;;5.90;2.88;;;;;;;17.66;29.85;102930.31;4970284;28;20070;-73
2024/01/10 00:22:21;;;;;;;5.13;2.53;;;;;;;17.65;29.66;102939.97;4970307;28;20045;-69
2024/01/10 00:24:47;;;;;;;4.72;2.38;;;;;;;17.64;29.91;102935.66;4970130;28;20392;-72
2024/01/10 00:27:12;;;;;;;5.40;2.50;;;;;;;17.66;30.11;102938.22;4970129;28;20379;-71
2024/01/10 00:29:38;;;;;;;5.15;2.67;;;;;;;17.70;29.84;102947.69;4968745;28;20030;-70
2024/01/10 00:32:04;;;;;;;5.90;2.20;;;;;;;17.63;29.85;102933.94;4969897;28;20030;-72
2024/01/10 00:34:29;;;;;;;5.85;2.60;;;;;;;17.49;29.81;102910.81;4969876;28;20575;-71
2024/01/10 00:36:55;;;;;;;5.22;2.65;;;;;;;17.63;30.13;102936.56;4969947;28;20073;-70
2024/01/10 00:39:20;;;;;;;5.10;2.60;;;;;;;17.61;29.72;102935.78;4970329;28;20027;-71
2024/01/10 00:41:45;;;;;;;5.63;2.50;;;;;;;17.50;29.97;102927.50;4969809;28;20053;-69
2024/01/10 00:44:10;;;;;;;6.07;2.55;;;;;;;17.61;29.95;102942.81;4970096;28;20388;-70
2024/01/10 00:46:36;;;;;;;5.95;2.40;;;;;;;17.52;29.88;102933.56;4969439;28;20046;-72
2024/01/10 00:49:02;;;;;;;6.25;2.60;;;;;;;17.48;30.11;102931.97;4970094;28;20046;-72
2024/01/10 00:51:27;;;;;;;5.40;2.65;;;;;;;17.52;29.70;102933.56;4969403;28;20121;-70
2024/01/10 00:53:52;;;;;;;5.78;2.75;;;;;;;17.55;30.19;102938.72;4969968;28;20126;-72
2024/01/10 00:56:18;;;;;;;6.25;2.72;;;;;;;17.50;29.90;102927.50;4969993;28;20391;-70
2024/01/10 00:58:43;;;;;;;5.88;2.80;;;;;;;17.44;29.76;102925.16;4969749;28;20117;-71
2024/01/10 01:01:08;;;;;;;5.70;3.08;;;;;;;17.45;30.09;102922.47;4968980;28;20797;-73
2024/01/10 01:03:33;;;;;;;5.23;2.60;;;;;;;17.51;29.87;102940.59;4968167;28;20031;-72
2024/01/10 01:05:59;;;;;;;5.40;2.47;;;;;;;17.49;29.97;102938.97;4968666;28;20697;-71
2024/01/10 01:08:24;;;;;;;6.10;2.70;;;;;;;17.49;29.97;102934.56;4969151;28;20066;-72
2024/01/10 01:10:49;;;;;;;5.05;2.67;;;;;;;17.40;30.23;102919.16;4968537;28;20038;-70
2024/01/10 01:13:15;;;;;;;5.03;2.60;;;;;;;17.39;29.88;102918.31;4969006;28;20039;-71
2024/01/10 01:15:40;;;;;;;6.60;2.85;;;;;;;17.46;29.91;102932.06;4969023;28;20050;-72
2024/01/10 01:18:06;;;;;;;5.20;2.40;;;;;;;17.45;29.90;102927.72;4969077;28;20553;-71
2024/01/10 01:20:31;;;;;;;5.13;2.58;;;;;;;17.33;30.33;102901.91;4968192;28;20034;-70
2024/01/10 01:22:56;;;;;;;4.22;2.40;;;;;;;17.34;29.98;102911.50;4968515;28;20073;-70
2024/01/10 01:25:22;;;;;;;8.00;2.90;;;;;;;17.41;30.21;102921.72;4968781;28;20157;-72
2024/01/10 01:27:47;;;;;;;5.50;2.70;;;;;;;17.34;30.21;102909.75;4968861;28;20042;-72
2024/01/10 01:30:12;;;;;;;6.07;2.63;;;;;;;17.37;30.04;102919.28;4967176;28;20392;-72
2024/01/10 01:32:38;;;;;;;7.55;2.92;;;;;;;17.45;30.06;102932.13;4968737;28;20034;-71
2024/01/10 01:35:04;;;;;;;6.22;2.83;;;;;;;17.34;30.25;102907.13;4969068;28;20384;-71
2024/01/10 01:37:29;;;;;;;5.03;2.65;;;;;;;17.40;30.22;102917.38;4969098;28;20101;-71
2024/01/10 01:39:55;;;;;;;6.05;2.90;;;;;;;17.43;29.98;102923.44;4968492;28;20035;-73
2024/01/10 01:42:20;;;;;;;8.65;3.40;;;;;;;17.41;30.36;102915.59;4968524;28;20041;-71
2024/01/10 01:44:45;;;;;;;5.20;2.45;;;;;;;17.38;30.60;102913.94;4968734;28;20299;-70
2024/01/10 01:47:11;;;;;;;5.85;2.95;;;;;;;17.43;30.48;102920.81;4968828;28;20047;-69
2024/01/10 01:49:36;;;;;;;6.60;2.92;;;;;;;17.41;30.19;102920.88;4968661;28;20030;-69
2024/01/10 01:52:02;;;;;;;6.63;2.70;;;;;;;17.38;30.24;102911.31;4968353;28;20166;-72
2024/01/10 01:54:27;;;;;;;5.47;2.90;;;;;;;17.38;30.33;102910.47;4968793;28;20066;-72
2024/01/10 01:56:53;;;;;;;4.85;2.53;;;;;;;17.39;30.31;102918.31;4968716;28;20117;-72
2024/01/10 01:59:19;;;;;;;5.07;2.65;;;;;;;17.41;30.37;102923.50;4968826;28;20035;-72
2024/01/10 02:01:45;;;;;;;5.60;2.92;;;;;;;17.34;30.19;102900.97;4966566;28;20357;-72
2024/01/10 02:04:11;;;;;;;6.50;3.20;;;;;;;17.40;30.21;102916.50;4967476;28;20090;-70
2024/01/10 02:06:36;;;;;;;7.43;2.95;;;;;;;17.38;30.22;102910.47;4968518;28;20118;-72
2024/01/10 02:09:03;;;;;;;7.30;2.92;;;;;;;17.37;30.12;102906.97;4968254;28;20062;-71
2024/01/10 02:11:28;;;;;;;5.72;2.95;;;;;;;17.38;30.09;102907.84;4967718;28;20380;-70
2024/01/10 02:13:54;;;;;;;7.00;2.63;;;;;;;17.32;30.53;102897.56;4968251;28;20033;-71
2024/01/10 02:16:20;;;;;;;5.93;2.80;;;;;;;17.37;30.54;102903.47;4967809;28;20469;-70
2024/01/10 02:18:45;;;;;;;5.97;2.58;;;;;;;17.30;30.55;102892.34;4967655;28;20053;-72
2024/01/10 02:21:11;;;;;;;5.00;2.50;;;;;;;17.35;30.06;102906.19;4967934;28;21139;-71
2024/01/10 02:23:36;;;;;;;6.45;2.58;;;;;;;17.34;30.40;102904.50;4968302;28;20542;-71
2024/01/10 02:26:02;;;;;;;5.95;2.45;;;;;;;17.34;30.31;102900.97;4966636;28;20038;-72
2024/01/10 02:28:27;;;;;;;4.93;2.65;;;;;;;17.27;30.49;102889.88;4968095;28;20396;-71
2024/01/10 02:30:54;;;;;;;5.30;2.60;;;;;;;17.36;30.59;102901.78;4967805;28;20472;-71
2024/01/10 02:33:19;;;;;;;5.75;2.60;;;;;;;17.31;30.22;102896.72;4968350;28;20038;-71
2024/01/10 02:35:45;;;;;;;6.20;3.22;;;;;;;17.33;30.28;102901.91;4968000;28;20041;-72
2024/01/10 02:38:10;;;;;;;5.82;2.83;;;;;;;17.34;30.18;102901.84;4968275;28;21487;-70
2024/01/10 02:40:35;;;;;;;6.22;2.72;;;;;;;17.33;30.15;102905.41;4968321;28;20121;-69
2024/01/10 02:43:01;;;;;;;7.57;2.70;;;;;;;17.28;30.34;102894.22;4968135;28;20480;-70
2024/01/10 02:45:26;;;;;;;7.63;2.90;;;;;;;17.24;30.62;102876.81;4968034;28;20518;-70
2024/01/10 02:47:51;;;;;;;8.73;3.00;;;;;;;17.29;30.71;102890.66;4968114;28;20051;-70
2024/01/10 02:50:17;;;;;;;5.53;2.30;;;;;;;17.24;30.29;102884.72;4968068;28;20424;-73
2024/01/10 02:52:42;;;;;;;5.03;2.47;;;;;;;17.27;30.70;102881.13;4968093;28;20034;-72
2024/01/10 02:55:07;;;;;;;5.35;2.58;;;;;;;17.28;30.42;102881.03;4968269;28;20050;-70
2024/01/10 02:57:33;;;;;;;9.65;2.75;;;;;;;17.28;30.33;102891.59;4967891;28;20065;-71
2024/01/10 02:59:58;;;;;;;6.35;3.00;;;;;;;17.26;30.43;102882.91;4968287;28;21346;-71
2024/01/10 03:02:24;;;;;;;5.57;2.40;;;;;;;17.22;30.24;102873.41;4967322;28;20038;-72
2024/01/10 03:04:49;;;;;;;6.35;2.67;;;;;;;17.26;30.58;102882.03;4967776;28;20035;-71
2024/01/10 03:07:14;;;;;;;5.85;2.50;;;;;;;17.28;30.22;102886.31;4967971;28;21239;-70
2024/01/10 03:09:40;;;;;;;6.88;2.90;;;;;;;17.17;30.35;102867.50;4967869;28;20031;-70
2024/01/10 03:12:05;;;;;;;5.82;2.63;;;;;;;17.26;30.18;102877.63;4967716;28;20027;-71
2024/01/10 03:14:30;;;;;;;6.82;2.60;;;;;;;17.21;30.71;102875.19;4970039;28;20129;-71
2024/01/10 03:16:56;;;;;;;5.30;2.20;;;;;;;17.17;30.41;102854.34;4971445;28;20039;-70
2024/01/10 03:19:21;;;;;;;8.90;2.63;;;;;;;17.19;30.39;102860.38;4971546;28;20054;-71
2024/01/10 03:21:46;;;;;;;6.68;2.65;;;;;;;17.16;30.59;102853.44;4971461;28;20050;-72
2024/01/10 03:24:11;;;;;;;5.75;2.67;;;;;;;17.25;30.79;102868.00;4971778;28;20035;-70
2024/01/10 03:26:37;;;;;;;6.18;2.70;;;;;;;17.22;30.50;102865.50;4971989;28;20030;-70
2024/01/10 03:29:02;;;;;;;5.65;2.35;;;;;;;17.19;30.47;102857.75;4972194;28;20035;-70
2024/01/10 03:31:30;;;;;;;5.90;2.47;;;;;;;17.24;30.69;102868.91;4971405;28;20046;-70
2024/01/10 03:33:56;;;;;;;5.07;2.55;;;;;;;17.17;30.49;102857.81;4971704;28;20039;-71
2024/01/10 03:36:21;;;;;;;7.40;2.92;;;;;;;17.16;30.46;102850.81;4971721;28;20031;-70
2024/01/10 03:38:46;;;;;;;8.43;2.72;;;;;;;17.21;30.31;102858.50;4971643;28;20113;-72
2024/01/10 03:41:16;;;;;;;9.10;3.30;;;;;;;17.22;30.42;102857.59;4971427;28;20058;-72
2024/01/10 03:43:42;;;;;;;6.78;2.63;;;;;;;17.20;30.50;102854.19;4971404;28;20031;-70
2024/01/10 03:46:08;;;;;;;6.47;2.90;;;;;;;17.16;30.69;102842.06;4970871;28;20105;-72
2024/01/10 03:48:34;;;;;;;7.32;3.35;;;;;;;17.11;30.86;102838.78;4971479;28;20046;-72
2024/01/10 03:50:59;;;;;;;6.60;2.85;;;;;;;17.11;30.60;102834.38;4971230;28;20050;-71
2024/01/10 03:53:24;;;;;;;7.13;2.90;;;;;;;17.11;30.79;102831.72;4971181;28;20097;-72
2024/01/10 03:55:50;;;;;;;8.77;3.05;;;;;;;17.11;30.77;102829.09;4971181;28;20122;-72
2024/01/10 03:58:15;;;;;;;6.68;2.33;;;;;;;17.11;30.69;102828.25;4971178;28;20039;-72
2024/01/10 04:00:40;;;;;;;6.30;2.75;;;;;;;17.18;30.30;102835.81;4971287;28;20119;-71
2024/01/10 04:03:06;;;;;;;9.23;2.80;;;;;;;17.09;30.65;102824.84;4969576;28;20081;-71
2024/01/10 04:05:31;;;;;;;5.80;2.50;;;;;;;17.09;30.77;102822.22;4970883;28;20038;-71
2024/01/10 04:07:56;;;;;;;7.68;2.95;;;;;;;17.17;30.56;102844.63;4970747;28;20065;-69
2024/01/10 04:10:22;;;;;;;5.65;3.00;;;;;;;17.17;30.45;102839.38;4969269;28;20049;-70
2024/01/10 04:12:48;;;;;;;6.43;2.53;;;;;;;17.08;30.59;102823.97;4969871;28;20038;-71
2024/01/10 04:15:14;;;;;;;6.13;2.50;;;;;;;17.16;30.61;102831.53;4970159;28;20034;-72
2024/01/10 04:17:39;;;;;;;6.65;2.55;;;;;;;17.08;30.51;102810.81;4970519;28;20045;-73
2024/01/10 04:20:05;;;;;;;6.70;2.70;;;;;;;17.13;30.68;102827.28;4971121;28;20023;-72
2024/01/10 04:22:31;;;;;;;4.43;2.17;;;;;;;17.14;30.32;102828.97;4971171;28;20037;-70
2024/01/10 04:25:01;;;;;;;6.47;2.72;;;;;;;17.13;30.62;102837.81;4971081;28;20031;-69
2024/01/10 04:27:27;;;;;;;7.43;2.67;;;;;;;17.10;30.72;102818.63;4970142;28;20057;-71
2024/01/10 04:29:53;;;;;;;6.63;2.83;;;;;;;17.00;30.78;102813.78;4970856;28;20065;-72
2024/01/10 04:32:18;;;;;;;6.15;2.58;;;;;;;17.03;30.32;102812.78;4970381;28;20038;-71
2024/01/10 04:34:44;;;;;;;5.93;2.65;;;;;;;17.01;30.82;102812.88;4970400;28;20057;-70
2024/01/10 04:37:09;;;;;;;5.22;2.53;;;;;;;17.03;30.58;102805.72;4970728;28;20110;-70
2024/01/10 04:39:35;;;;;;;6.28;2.58;;;;;;;16.97;30.59;102806.03;4970348;28;20106;-68
2024/01/10 04:42:01;;;;;;;6.80;2.58;;;;;;;17.00;30.55;102811.13;4970018;28;20436;-71
2024/01/10 04:44:27;;;;;;;6.43;2.95;;;;;;;17.00;30.55;102810.31;4971651;28;20062;-70
2024/01/10 04:46:52;;;;;;;6.57;2.85;;;;;;;17.05;30.46;102824.09;4972110;28;20611;-71
2024/01/10 04:49:17;;;;;;;5.68;2.53;;;;;;;17.09;30.46;102830.97;4972101;28;20043;-70
2024/01/10 04:51:43;;;;;;;7.53;2.72;;;;;;;17.09;30.68;102830.13;4971947;28;20039;-70
2024/01/10 04:54:08;;;;;;;8.63;3.15;;;;;;;17.08;30.63;102823.13;4970948;28;20065;-72
2024/01/10 04:56:36;;;;;;;7.70;2.75;;;;;;;17.00;30.54;102802.41;4969786;28;20098;-71
2024/01/10 04:59:01;;;;;;;7.28;2.83;;;;;;;17.06;30.26;102812.66;4969974;28;20467;-71
2024/01/10 05:01:27;;;;;;;7.65;3.17;;;;;;;16.96;30.54;102809.59;4970255;28;20034;-70
2024/01/10 05:03:52;;;;;;;5.80;2.53;;;;;;;16.97;30.76;102813.06;4970194;28;20035;-72
2024/01/10 05:06:17;;;;;;;8.33;3.20;;;;;;;17.06;30.54;102807.38;4969087;28;20097;-72
2024/01/10 05:08:42;;;;;;;7.55;2.80;;;;;;;16.97;30.91;102797.25;4969847;28;20257;-72
2024/01/10 05:11:08;;;;;;;6.72;2.75;;;;;;;17.01;30.76;102815.50;4969038;28;20328;-71
2024/01/10 05:13:33;;;;;;;7.25;2.60;;;;;;;17.04;30.64;102814.50;4969306;28;20369;-70
2024/01/10 05:15:58;;;;;;;6.78;3.10;;;;;;;16.96;30.76;102799.06;4969134;28;20122;-69
2024/01/10 05:18:24;;;;;;;7.22;3.40;;;;;;;16.94;31.00;102797.41;4969609;28;20049;-70
2024/01/10 05:20:49;;;;;;;6.47;2.40;;;;;;;16.94;30.93;102800.91;4969664;28;20034;-72
2024/01/10 05:23:15;;;;;;;5.32;2.53;;;;;;;17.00;30.99;102813.78;4969701;28;20026;-69
2024/01/10 05:25:40;;;;;;;5.68;2.78;;;;;;;16.99;30.89;102812.09;4968969;28;20027;-70
2024/01/10 05:28:06;;;;;;;5.70;2.50;;;;;;;16.95;30.69;102799.97;4969360;28;20594;-71
2024/01/10 05:30:35;;;;;;;4.85;2.38;;;;;;;17.03;31.22;102813.63;4968263;28;20038;-71
2024/01/10 05:33:00;;;;;;;6.10;2.45;;;;;;;16.99;31.50;102811.22;4968774;28;20383;-70
2024/01/10 05:35:28;;;;;;;6.55;2.45;;;;;;;17.02;31.99;102805.81;4969267;28;20037;-69
2024/01/10 05:37:54;;;;;;;5.63;2.50;;;;;;;17.13;32.46;102814.09;4968036;28;20075;-71
2024/01/10 05:40:20;;;;;;;6.78;2.97;;;;;;;17.20;32.56;102820.78;4968777;28;21154;-70
2024/01/10 05:42:45;;;;;;;7.07;2.35;;;;;;;17.15;32.70;102804.34;4967248;28;20030;-70
2024/01/10 05:45:10;;;;;;;6.03;2.22;;;;;;;17.24;33.13;102816.22;4968444;28;20113;-72
2024/01/10 05:47:36;;;;;;;6.47;2.40;;;;;;;17.29;33.15;102816.00;4968261;28;20051;-71
2024/01/10 05:50:06;;;;;;;8.45;2.40;;;;;;;17.31;32.89;102817.66;4968531;28;20030;-71
2024/01/10 05:52:31;;;;;;;5.75;2.13;;;;;;;17.38;33.15;102823.50;4968308;28;20035;-69
2024/01/10 05:54:56;;;;;;;6.53;2.35;;;;;;;17.38;33.13;102815.59;4967928;28;20487;-73
2024/01/10 05:57:22;;;;;;;4.25;2.20;;;;;;;17.33;33.00;102805.25;4967961;28;20026;-69
2024/01/10 05:59:47;;;;;;;6.65;2.20;;;;;;;17.40;32.92;102809.31;4968516;28;20031;-70
2024/01/10 06:02:15;;;;;;;5.53;2.40;;;;;;;17.40;32.85;102803.19;4967424;28;20376;-69
2024/01/10 06:04:41;;;;;;;6.63;2.53;;;;;;;17.48;33.04;102813.34;4967931;28;20126;-71
2024/01/10 06:07:06;;;;;;;4.93;2.25;;;;;;;17.43;33.20;102802.19;4968398;28;20130;-69
2024/01/10 06:09:31;;;;;;;6.07;2.20;;;;;;;17.50;33.29;102814.13;4968152;28;20039;-71
2024/01/10 06:11:57;;;;;;;6.97;2.10;;;;;;;17.50;32.98;102804.47;4968238;28;20320;-72
2024/01/10 06:14:22;;;;;;;5.70;2.15;;;;;;;17.58;32.97;102817.28;4968425;28;20588;-73
2024/01/10 06:16:47;;;;;;;8.07;2.15;;;;;;;17.57;32.86;102815.56;4968400;28;20052;-72
2024/01/10 06:19:12;;;;;;;6.40;2.25;;;;;;;17.49;32.87;102791.34;4968476;28;20110;-71
2024/01/10 06:21:38;;;;;;;5.78;2.40;;;;;;;17.57;32.77;102803.22;4968142;28;20090;-72
2024/01/10 06:24:04;;;;;;;6.25;2.33;;;;;;;17.62;33.09;102810.06;4968276;28;20391;-72
2024/01/10 06:26:29;;;;;;;6.63;2.25;;;;;;;17.59;33.19;102801.41;4968033;28;20085;-71
2024/01/10 06:28:54;;;;;;;6.60;2.35;;;;;;;17.61;33.00;102808.34;4968179;28;20033;-70
2024/01/10 06:31:20;;;;;;;4.50;2.20;;;;;;;17.54;32.97;102789.34;4967561;28;20034;-72
2024/01/10 06:33:45;;;;;;;6.57;2.42;;;;;;;17.53;33.06;102792.91;4968210;28;20065;-71
2024/01/10 06:36:11;;;;;;;4.80;1.98;;;;;;;17.61;32.88;102813.63;4968387;28;20034;-70
2024/01/10 06:38:38;;;;;;;6.00;2.28;;;;;;;17.61;32.95;102816.25;4966204;28;20039;-71
2024/01/10 06:41:08;;;;;;;4.63;2.17;;;;;;;17.60;32.85;102810.16;4951060;28;20035;-70
2024/01/10 06:43:34;;;;;;;5.63;2.05;;;;;;;17.60;32.89;102818.06;4967008;28;20039;-70
2024/01/10 06:45:59;;;;;;;5.95;2.30;;;;;;;17.54;32.62;102808.66;4967622;28;20065;-73
2024/01/10 06:48:25;;;;;;;5.70;2.10;;;;;;;17.53;32.73;102806.09;4967082;28;20058;-72
2024/01/10 06:50:50;;;;;;;5.78;2.50;;;;;;;17.55;32.88;102810.38;4967708;28;20114;-71
2024/01/10 06:53:15;;;;;;;4.45;2.03;;;;;;;17.64;32.92;102818.75;4967875;28;20058;-70
2024/01/10 06:55:41;;;;;;;6.93;2.45;;;;;;;17.63;32.67;102812.63;4967274;28;20411;-72
2024/01/10 06:58:06;;;;;;;5.32;2.28;;;;;;;17.59;32.79;102805.78;4967658;28;20042;-71
2024/01/10 07:00:31;;;;;;;5.30;2.13;;;;;;;17.55;33.21;102797.19;4982635;28;20396;-70
2024/01/10 07:02:56;;;;;;;5.20;2.07;;;;;;;17.63;33.21;102810.00;4966382;28;20042;-72
2024/01/10 07:05:22;;;;;;;6.37;2.13;;;;;;;17.64;33.30;102811.72;4966970;28;20595;-69
2024/01/10 07:07:49;;;;;;;6.38;2.28;;;;;;;17.67;33.36;102822.09;4966438;28;20272;-73
2024/01/10 07:10:14;;;;;;;6.60;2.45;;;;;;;17.62;33.02;102813.56;4966945;28;20026;-71
2024/01/10 07:12:41;;;;;;;7.07;2.63;;;;;;;17.70;33.19;102819.31;4966768;28;20384;-72
2024/01/10 07:15:07;;;;;;;7.00;2.72;;;;;;;17.63;32.49;102819.69;4966831;28;20046;-71
2024/01/10 07:17:33;;;;;;;6.63;2.33;;;;;;;17.67;32.80;102821.25;4966706;28;20737;-72
2024/01/10 07:19:58;;;;;;;5.95;2.28;;;;;;;17.58;32.96;102810.22;4967727;28;20113;-72
2024/01/10 07:22:23;;;;;;;4.93;2.20;;;;;;;17.57;32.72;102797.94;4967228;28;20491;-73
2024/01/10 07:24:49;;;;;;;9.23;2.70;;;;;;;17.55;32.97;102788.44;4967422;28;20389;-72
2024/01/10 07:27:14;;;;;;;4.30;2.40;;;;;;;17.58;33.40;102789.13;4967270;28;20495;-72
2024/01/10 07:29:40;;;;;;;5.85;2.20;;;;;;;17.61;33.62;102792.53;4967563;28;20523;-73
2024/01/10 07:32:10;;;;;;;6.43;2.45;;;;;;;17.70;33.81;102810.56;4966972;28;20431;-70
2024/01/10 07:34:37;;;;;;;5.63;2.20;;;;;;;17.71;33.40;102814.91;4967587;28;20027;-74
2024/01/10 07:37:03;;;;;;;6.93;2.45;;;;;;;17.60;33.87;102794.31;4966875;28;20026;-73
2024/01/10 07:39:28;;;;;;;5.05;2.38;;;;;;;17.67;33.45;102801.00;4967482;28;20121;-70
2024/01/10 07:41:54;;;;;;;6.80;2.58;;;;;;;17.71;33.08;102807.84;4967150;28;20126;-72
2024/01/10 07:44:19;;;;;;;8.15;2.60;;;;;;;17.71;33.32;102801.72;4967645;28;20034;-71
2024/01/10 07:46:45;;;;;;;7.07;2.42;;;;;;;17.49;33.49;102768.47;4967124;28;20085;-70
2024/01/10 07:49:10;;;;;;;7.18;2.80;;;;;;;17.73;33.85;102795.44;4967431;28;20039;-73
2024/01/10 07:51:35;;;;;;;6.55;2.15;;;;;;;17.66;33.67;102772.09;4968758;28;20625;-72
2024/01/10 07:54:00;;;;;;;4.95;2.40;;;;;;;17.72;33.79;102795.50;4967006;28;20019;-70
2024/01/10 07:56:26;;;;;;;8.63;2.70;;;;;;;17.79;33.35;102814.53;4967095;28;20574;-72
2024/01/10 07:58:51;;;;;;;6.57;2.42;;;;;;;17.75;33.22;102809.41;4967351;28;20038;-72
2024/01/10 08:01:17;;;;;;;6.35;2.45;;;;;;;17.68;33.76;102797.44;4968842;28;20033;-71
2024/01/10 08:03:43;;;;;;;6.75;2.50;;;;;;;17.71;33.34;102804.34;4969707;28;20488;-71
2024/01/10 08:06:08;;;;;;;6.32;2.45;;;;;;;17.66;33.60;102799.31;4970301;28;20031;-71
2024/01/10 08:08:33;;;;;;;7.05;2.70;;;;;;;17.69;33.58;102803.56;4970765;28;20026;-71
2024/01/10 08:10:59;;;;;;;7.65;2.50;;;;;;;17.80;33.44;102817.09;4970443;28;20391;-72
2024/01/10 08:13:24;;;;;;;5.45;2.22;;;;;;;17.70;33.92;102800.00;4970466;28;20122;-71
2024/01/10 08:15:49;;;;;;;7.32;2.47;;;;;;;17.82;34.19;102831.06;4966955;28;20042;-70
2024/01/10 08:18:15;;;;;;;4.35;2.13;;;;;;;17.77;34.51;102818.09;4969644;28;20031;-71
2024/01/10 08:20:40;;;;;;;7.72;2.70;;;;;;;17.87;34.68;102822.94;4969308;28;20047;-69
2024/01/10 08:23:06;;;;;;;6.40;2.75;;;;;;;17.94;34.51;102821.72;4969538;28;20516;-72
2024/01/10 08:25:31;;;;;;;5.25;2.17;;;;;;;17.92;35.37;102813.03;4969349;28;20043;-70
2024/01/10 08:27:57;;;;;;;6.15;2.53;;;;;;;18.00;35.03;102815.28;4968669;28;20026;-69
2024/01/10 08:30:23;;;;;;;6.65;2.45;;;;;;;18.04;35.79;102817.72;4969459;28;20054;-71
2024/01/10 08:32:49;;;;;;;6.60;2.70;;;;;;;18.02;35.60;102816.91;4968495;28;20395;-71
2024/01/10 08:35:15;;;;;;;7.28;2.78;;;;;;;18.10;35.49;102835.00;4969286;28;20050;-70
2024/01/10 08:37:42;;;;;;;9.20;3.15;;;;;;;18.07;35.90;102828.09;4969680;28;20041;-70
2024/01/10 08:40:11;;;;;;;13.25;3.38;;;;;;;18.03;36.83;102826.53;4969293;28;22262;-70
2024/01/10 08:42:38;;;;;;;8.02;2.90;;;;;;;17.97;36.79;102816.28;4969212;28;20122;-70
2024/01/10 08:45:04;;;;;;;7.13;3.15;;;;;;;18.03;36.32;102831.81;4965212;28;20038;-70
2024/01/10 08:47:32;;;;;;;10.30;3.35;;;;;;;17.97;36.07;102821.56;4968288;28;20050;-71
2024/01/10 08:49:58;;;;;;;9.02;3.13;;;;;;;17.96;36.03;102825.16;4967463;28;20050;-69
2024/01/10 08:52:23;;;;;;;9.32;3.20;;;;;;;18.03;35.69;102828.34;4967124;28;20034;-72
2024/01/10 08:54:48;;;;;;;8.18;2.83;;;;;;;18.02;35.30;102831.91;4966281;28;20117;-73
2024/01/10 08:57:14;;;;;;;8.23;3.50;;;;;;;17.95;35.28;102818.16;4968197;28;20066;-71
2024/01/10 08:59:42;;;;;;;7.35;3.47;;;;;;;18.01;35.60;102835.44;4967434;28;20272;-72
2024/01/10 09:02:07;;;;;;;6.80;2.83;;;;;;;18.02;35.40;102840.66;4966591;28;20070;-69
2024/01/10 09:04:32;;;;;;;8.95;3.30;;;;;;;18.04;35.18;102843.22;4968056;28;20147;-72
2024/01/10 09:06:58;;;;;;;8.55;3.38;;;;;;;18.00;35.17;102824.06;4968153;28;20634;-70
2024/01/10 09:09:23;;;;;;;8.68;3.50;;;;;;;17.97;35.14;102820.72;4968643;28;20470;-70
2024/01/10 09:11:49;;;;;;;8.63;3.30;;;;;;;18.07;35.27;102836.03;4967814;28;20043;-72
2024/01/10 09:14:14;;;;;;;11.90;3.30;;;;;;;18.02;35.01;102822.19;4968409;28;20030;-71
2024/01/10 09:16:40;;;;;;;9.13;3.05;;;;;;;18.07;34.87;102836.03;4968011;28;20507;-72
2024/01/10 09:19:05;;;;;;;7.15;3.08;;;;;;;18.06;35.27;102836.09;4966568;28;20033;-71
2024/01/10 09:21:31;;;;;;;9.88;3.50;;;;;;;17.97;35.12;102820.72;4966493;28;20039;-71
2024/01/10 09:23:56;;;;;;;5.97;2.92;;;;;;;18.03;35.33;102829.19;4967455;28;20035;-73
2024/01/10 09:26:22;;;;;;;9.02;3.20;;;;;;;18.08;35.01;102850.91;4966783;28;20045;-72
2024/01/10 09:28:48;;;;;;;5.88;2.67;;;;;;;17.96;35.20;102830.44;4965569;28;20061;-72
2024/01/10 09:31:13;;;;;;;9.23;3.10;;;;;;;17.95;35.18;102834.84;4966269;28;20051;-73
2024/01/10 09:33:38;;;;;;;9.57;3.28;;;;;;;18.05;34.94;102851.06;4964123;28;20574;-72
2024/01/10 09:36:04;;;;;;;7.25;3.67;;;;;;;17.96;34.96;102835.72;4966920;28;20039;-71
2024/01/10 09:38:34;;;;;;;6.57;2.83;;;;;;;18.04;34.91;102846.72;4967062;28;20158;-72
2024/01/10 09:41:03;;;;;;;7.25;3.33;;;;;;;17.96;35.21;102838.34;4967958;28;21371;-73
2024/01/10 09:43:30;;;;;;;7.97;2.50;;;;;;;18.02;35.24;102851.22;4968407;28;20039;-69
2024/01/10 09:45:58;;;;;;;8.57;3.13;;;;;;;18.02;35.12;102848.56;4964531;28;20075;-70
2024/01/10 09:48:24;;;;;;;7.82;2.97;;;;;;;18.03;35.01;102850.28;4967392;28;20046;-70
2024/01/10 09:50:50;;;;;;;7.78;3.03;;;;;;;17.98;35.19;102848.81;4967994;28;20117;-69
2024/01/10 09:53:23;;;;;;;7.20;3.13;;;;;;;18.05;35.29;102855.50;4967203;28;20197;-70
2024/01/10 09:55:49;;;;;;;7.35;2.95;;;;;;;18.02;35.01;102856.47;4966877;28;20039;-71
2024/01/10 09:58:14;;;;;;;7.43;3.45;;;;;;;17.94;34.96;102846.34;4966843;28;20047;-71
2024/01/10 10:00:40;;;;;;;9.20;3.53;;;;;;;17.97;35.20;102847.09;4967262;28;20034;-71
2024/01/10 10:03:12;;;;;;;9.80;3.60;;;;;;;18.04;34.94;102865.19;4966008;28;20038;-70
2024/01/10 10:05:37;;;;;;;8.07;3.58;;;;;;;18.05;35.00;102861.63;4967614;28;20035;-70
2024/01/10 10:08:06;;;;;;;6.95;3.22;;;;;;;17.94;35.18;102843.69;4966659;28;20027;-72
2024/01/10 10:10:32;;;;;;;6.15;3.17;;;;;;;18.07;34.81;102858.91;4966558;28;20396;-71
2024/01/10 10:12:57;;;;;;;7.88;3.05;;;;;;;18.02;34.97;102859.13;4968208;28;20031;-72
2024/01/10 10:15:26;;;;;;;7.55;3.20;;;;;;;17.97;35.20;102849.75;4966934;28;20093;-71
2024/01/10 10:17:53;;;;;;;8.30;3.67;;;;;;;17.99;35.21;102842.59;4968015;28;20117;-72
2024/01/10 10:20:23;;;;;;;7.72;3.40;;;;;;;18.05;35.33;102863.41;4968145;28;20027;-71
2024/01/10 10:23:04;;;;;;;8.63;3.67;;;;;;;18.02;35.08;102858.28;4967644;28;20034;-72
2024/01/10 10:25:32;;;;;;;8.82;3.35;;;;;;;18.01;34.97;102853.91;4967534;28;20165;-71
2024/01/10 10:27:58;;;;;;;6.03;2.92;;;;;;;18.02;35.63;102853.84;4967535;28;20035;-71
2024/01/10 10:30:25;;;;;;;6.75;3.30;;;;;;;18.03;35.46;102852.94;4969561;28;20053;-69
2024/01/10 10:32:50;;;;;;;8.45;3.30;;;;;;;18.00;35.09;102847.81;4982033;28;20046;-71
2024/01/10 10:35:18;;;;;;;6.72;3.40;;;;;;;18.01;34.49;102846.88;4967505;28;20129;-71
2024/01/10 10:37:44;;;;;;;6.35;3.30;;;;;;;17.93;34.66;102827.94;4982236;28;20043;-72
2024/01/10 10:40:11;;;;;;;6.22;3.15;;;;;;;17.94;34.72;102824.34;4982769;28;20122;-71
2024/01/10 10:42:40;;;;;;;6.43;3.15;;;;;;;18.00;34.61;102824.06;4967477;28;20488;-72
2024/01/10 10:45:08;;;;;;;8.32;3.65;;;;;;;17.97;34.67;102818.09;4968094;28;20031;-71
2024/01/10 10:47:38;;;;;;;10.05;3.40;;;;;;;17.97;34.77;102816.28;4967665;28;20055;-70
2024/01/10 10:50:05;;;;;;;8.25;3.60;;;;;;;17.88;34.75;102806.19;4967786;28;20126;-71
2024/01/10 10:52:32;;;;;;;7.90;3.78;;;;;;;17.96;34.44;102827.78;4967665;28;20049;-73
2024/01/10 10:54:58;;;;;;;9.00;3.85;;;;;;;17.97;34.66;102837.41;4967857;28;20046;-71
2024/01/10 10:57:26;;;;;;;9.60;3.63;;;;;;;17.98;34.60;102833.00;4967781;28;20056;-71
2024/01/10 10:59:53;;;;;;;6.63;3.38;;;;;;;17.91;34.34;102824.50;4968169;28;20042;-70
2024/01/10 11:02:24;;;;;;;8.40;3.70;;;;;;;17.91;34.51;102813.94;4966839;28;20121;-71
2024/01/10 11:04:51;;;;;;;6.57;3.10;;;;;;;17.91;34.58;102824.50;4981906;28;20122;-71
2024/01/10 11:07:16;;;;;;;6.25;3.40;;;;;;;17.87;34.64;102818.50;4965652;28;20041;-72
2024/01/10 11:09:46;;;;;;;9.70;3.75;;;;;;;17.86;34.92;102819.41;4967063;28;20109;-71
2024/01/10 11:12:46;;;;;;;7.10;3.47;;;;;;;17.96;34.87;102833.06;4966822;28;20035;-72
2024/01/10 11:15:23;;;;;;;8.43;3.38;;;;;;;17.95;34.70;102832.19;4939249;28;20067;-72
2024/01/10 11:18:26;;;;;;;7.97;3.83;;;;;;;17.94;34.67;102819.94;4966786;28;20711;-71